Salina, KS (67401)

9:09 PM CDT en Septiembre 02, 2014 (GMT -0500)
Peters Science Hall | Change Station
CLOSE
Current Station
Estación meteorológica personal
Location: Salina, KS
Altura: 1225 ft
Estaciones meteorológicas cercanas

Alt 1225 ft 38.81 °N, 97.61 °W | Updated 1 second ago

Clear
Despejado
79.4 ° F
Sensación térmica 81 ° F
N
6.0
Viento Variable Viento desde SE
Gusts 8.0 mph

Hoy
Alta -- | Baja -- ° F
--% Posibilidad de precipitaciones
Ayer
Alta -- | Baja -- ° F
Precip. -- pul
7:00 AM 7:59 PM
Cuarto creciente, 57% visible
Presión 29.89 pul
Visibilidad 10.0 Millas
Nubes Despejado
Índice de calor 81 ° F
Punto de rocío 66 ° F
Humedad 64%
Precipitaciones 0.00 pul
Espesor de la nieve No disponible.
UV 0.0 de una escala de 12
Polen 10.10 de una escala de 12
Calidad del aire No disponible.
Flu Activity No disponible.
METAR KSLN 030153Z 13006KT 10SM CLR 26/20 A2992 RMK AO2 SLP121 T02560200

More Conditions Fewer Conditions

Presión 29.89 pul
Visibilidad 10.0 Millas
Nubes Despejado
Índice de calor 81 ° F
Punto de rocío 66 ° F
Humedad 64%
Precipitaciones 0.00 pul
Espesor de la nieve No disponible.
UV 0.0 de una escala de 12
Polen 10.10 de una escala de 12
Calidad del aire No disponible.
Flu Activity No disponible.
METAR KSLN 030153Z 13006KT 10SM CLR 26/20 A2992 RMK AO2 SLP121 T02560200

More Conditions Fewer Conditions

10-Day Weather Forecast

Almanac

Astronomía

Sep. 02, 2014 Salida Puesta
Hora real 7:00 AM CDT 7:59 PM CDT
Crepúsculo civil 6:33 AM CDT 8:26 PM CDT
Crepúsculo náutico 6:00 AM CDT 8:58 PM CDT
Crepúsculo astronómico 5:27 AM CDT 9:32 PM CDT
Luna 2:42 PM CDT (9/2) 12:07 AM CDT (9/2)
Horas de luz 13h 53m
Horas de luz
12h 58m
Tomorrow will be 2m 27s shorter.
Cuarto creciente, 57% of the Moon is Illuminated
Hoy
Cuarto creciente
Sep 8
Luna llena
Sep 15
Cuarto menguante
Sep 24
Nueva
Oct 1
Cuarto creciente

Extremos de hoy

Máximos del estado Bajos del estado

Community

WunderPhotos

Upload Photos

1,749,837 ¡fotos cargadas!

Nearby

Grosos de nieve

Estación Profundido Altura
No tenemos constancia de nieve nueva.

Actividad de terremotos

Ciudad Distance Mag. Tiempo y dato
No hay informes recientes de la actividad sísmica.
Magnitud mínima muestra es 2,5.

Temperaturas de aguas costeras

Lugar Temperatura
Sin partes meteorológicos de las estaciones

Estaciones meteorológicas cercanas